Time;durP1;ratioP1;P1;durP2;ratioP2;P2;SDS_P1;SDS_P2;PMS_P1;PMS_P2;Temp;Humidity;BMP_temperature;BMP_pressure;BME280_temperature;BME280_humidity;BME280_pressure;Samples;Min_cycle;Max_cycle;Signal;HPM_P1;HPM_P2
2022/11/29 00:01:00;;;;;;;62.83;41.65;;;;;;;;;;4996020;28;20026;-73
2022/11/29 00:03:26;;;;;;;77.75;45.08;;;;;;;;;;4996296;28;20018;-75
2022/11/29 00:05:52;;;;;;;76.35;43.88;;;;;;;;;;4996221;28;20018;-75
2022/11/29 00:08:22;;;;;;;70.00;43.45;;;;;;;;;;4996203;28;20032;-74
2022/11/29 00:10:48;;;;;;;66.20;44.95;;;;;;;;;;4996253;28;20129;-74
2022/11/29 00:13:14;;;;;;;65.22;39.25;;;;;;;;;;4995971;28;20022;-75
2022/11/29 00:15:40;;;;;;;57.17;36.95;;;;;;;;;;4995801;28;20061;-74
2022/11/29 00:18:07;;;;;;;55.75;32.95;;;;;;;;;;4978188;28;20045;-76
2022/11/29 00:20:33;;;;;;;58.00;35.42;;;;;;;;;;4995954;28;20030;-75
2022/11/29 00:23:00;;;;;;;57.35;35.65;;;;;;;;;;4995738;28;20034;-74
2022/11/29 00:25:26;;;;;;;56.70;36.67;;;;;;;;;;4995803;28;20072;-74
2022/11/29 00:27:52;;;;;;;57.63;36.92;;;;;;;;;;4994431;28;20037;-75
2022/11/29 00:30:19;;;;;;;60.92;40.65;;;;;;;;;;4995626;28;20026;-75
2022/11/29 00:32:45;;;;;;;63.22;39.13;;;;;;;;;;4995619;28;20380;-75
2022/11/29 00:35:11;;;;;;;61.28;41.13;;;;;;;;;;4995401;28;20034;-73
2022/11/29 00:37:38;;;;;;;155.05;84.82;;;;;;;;;;4995555;28;20432;-74
2022/11/29 00:40:04;;;;;;;177.23;94.57;;;;;;;;;;4995457;28;20018;-75
2022/11/29 00:42:31;;;;;;;123.68;71.35;;;;;;;;;;4995535;28;20477;-74
2022/11/29 00:44:57;;;;;;;133.65;75.88;;;;;;;;;;4978199;28;20033;-74
2022/11/29 00:47:23;;;;;;;100.07;62.63;;;;;;;;;;4995313;28;20037;-75
2022/11/29 00:49:49;;;;;;;113.35;68.88;;;;;;;;;;4995369;28;20026;-75
2022/11/29 00:52:15;;;;;;;105.20;65.97;;;;;;;;;;4995212;28;20540;-74
2022/11/29 00:54:41;;;;;;;102.85;61.97;;;;;;;;;;4995124;28;20491;-74
2022/11/29 00:57:07;;;;;;;78.47;49.20;;;;;;;;;;4995229;28;20480;-74
2022/11/29 00:59:33;;;;;;;165.10;96.43;;;;;;;;;;4994955;28;20477;-74
2022/11/29 01:01:59;;;;;;;204.68;118.78;;;;;;;;;;4995522;28;20531;-74
2022/11/29 01:04:25;;;;;;;139.80;86.68;;;;;;;;;;4995061;28;20465;-75
2022/11/29 01:06:52;;;;;;;116.05;77.28;;;;;;;;;;4977566;28;20030;-75
2022/11/29 01:09:18;;;;;;;151.63;88.72;;;;;;;;;;4995065;28;20389;-75
2022/11/29 01:11:44;;;;;;;130.23;78.57;;;;;;;;;;4995021;28;20354;-74
2022/11/29 01:14:12;;;;;;;157.60;94.25;;;;;;;;;;4977221;28;20041;-74
2022/11/29 01:16:38;;;;;;;89.18;59.30;;;;;;;;;;4994756;28;20096;-74
2022/11/29 01:19:06;;;;;;;124.22;80.95;;;;;;;;;;4994362;28;20078;-74
2022/11/29 01:21:32;;;;;;;88.80;54.60;;;;;;;;;;4994852;28;20030;-74
2022/11/29 01:23:59;;;;;;;94.97;60.83;;;;;;;;;;4994535;28;20069;-74
2022/11/29 01:26:27;;;;;;;86.57;57.05;;;;;;;;;;4993980;28;20034;-76
2022/11/29 01:28:54;;;;;;;88.95;57.03;;;;;;;;;;4994557;28;20038;-75
2022/11/29 01:31:22;;;;;;;88.80;56.63;;;;;;;;;;4994555;28;20030;-74
2022/11/29 01:33:48;;;;;;;102.38;63.28;;;;;;;;;;4994358;28;20025;-75
2022/11/29 01:36:15;;;;;;;92.78;60.92;;;;;;;;;;4994384;28;20092;-75
2022/11/29 01:38:41;;;;;;;93.05;60.47;;;;;;;;;;4994363;28;20026;-75
2022/11/29 01:41:10;;;;;;;74.68;48.78;;;;;;;;;;4994445;28;20037;-75
2022/11/29 01:43:54;;;;;;;72.88;47.92;;;;;;;;;;4994181;28;20492;-75
2022/11/29 01:46:20;;;;;;;63.03;39.95;;;;;;;;;;4994138;28;20034;-75
2022/11/29 01:48:47;;;;;;;57.38;37.05;;;;;;;;;;4994176;28;20019;-75
2022/11/29 01:51:14;;;;;;;52.40;32.75;;;;;;;;;;4994176;28;20073;-75
2022/11/29 01:53:40;;;;;;;41.78;27.08;;;;;;;;;;4994096;28;20600;-74
2022/11/29 01:56:07;;;;;;;42.88;27.40;;;;;;;;;;4994403;28;20113;-75
2022/11/29 01:58:34;;;;;;;40.90;25.25;;;;;;;;;;4993979;28;20049;-75
2022/11/29 02:01:00;;;;;;;36.00;22.20;;;;;;;;;;4994166;28;20026;-72
2022/11/29 02:03:26;;;;;;;27.27;17.73;;;;;;;;;;4993872;28;20432;-75
2022/11/29 02:05:54;;;;;;;30.27;18.20;;;;;;;;;;4993968;28;20031;-75
2022/11/29 02:08:25;;;;;;;29.63;19.45;;;;;;;;;;4993950;28;20037;-74
2022/11/29 02:11:03;;;;;;;29.80;20.63;;;;;;;;;;4976343;28;20058;-74
2022/11/29 02:13:29;;;;;;;24.77;16.52;;;;;;;;;;4993867;28;20076;-75
2022/11/29 02:16:00;;;;;;;24.63;15.65;;;;;;;;;;4993379;28;20109;-74
2022/11/29 02:18:49;;;;;;;34.05;21.63;;;;;;;;;;4993601;28;20121;-74
2022/11/29 02:21:32;;;;;;;25.15;17.08;;;;;;;;;;4993354;28;20034;-72
2022/11/29 02:24:04;;;;;;;23.20;16.25;;;;;;;;;;4993635;28;20075;-74
2022/11/29 02:26:43;;;;;;;32.38;21.08;;;;;;;;;;4993456;28;20511;-75
2022/11/29 02:29:12;;;;;;;35.42;21.02;;;;;;;;;;4993568;28;20065;-75
2022/11/29 02:31:38;;;;;;;34.95;20.95;;;;;;;;;;4993468;28;20077;-75
2022/11/29 02:34:16;;;;;;;24.35;16.73;;;;;;;;;;4993467;28;20022;-73
2022/11/29 02:37:01;;;;;;;18.83;13.32;;;;;;;;;;4993231;28;20034;-74
2022/11/29 02:39:27;;;;;;;18.77;13.60;;;;;;;;;;4993703;28;20030;-75
2022/11/29 02:41:59;;;;;;;21.08;14.98;;;;;;;;;;4993322;28;20072;-75
2022/11/29 02:44:34;;;;;;;22.52;15.55;;;;;;;;;;4993416;28;20034;-74
2022/11/29 02:47:09;;;;;;;26.75;18.02;;;;;;;;;;4993425;28;20026;-74
2022/11/29 02:50:02;;;;;;;28.95;19.77;;;;;;;;;;4993747;28;20057;-74
2022/11/29 02:52:31;;;;;;;30.77;20.05;;;;;;;;;;4939782;28;20481;-74
2022/11/29 02:55:03;;;;;;;30.92;20.33;;;;;;;;;;4993362;28;20062;-75
2022/11/29 02:57:36;;;;;;;31.20;21.13;;;;;;;;;;4993160;28;20377;-73
2022/11/29 03:00:07;;;;;;;34.00;21.40;;;;;;;;;;4993307;28;20018;-73
2022/11/29 03:02:51;;;;;;;33.70;20.40;;;;;;;;;;4993132;28;20026;-74
2022/11/29 03:05:17;;;;;;;31.17;19.08;;;;;;;;;;4976074;28;20049;-75
2022/11/29 03:07:53;;;;;;;32.30;19.05;;;;;;;;;;4993112;28;20018;-73
2022/11/29 03:10:19;;;;;;;28.55;19.35;;;;;;;;;;4993290;28;20026;-75
2022/11/29 03:12:47;;;;;;;26.33;18.65;;;;;;;;;;4993525;28;20073;-74
2022/11/29 03:15:19;;;;;;;28.75;18.42;;;;;;;;;;4993257;28;20088;-74
2022/11/29 03:18:04;;;;;;;27.17;17.73;;;;;;;;;;4992823;28;20417;-74
2022/11/29 03:20:30;;;;;;;27.13;17.30;;;;;;;;;;4993250;28;20034;-73
2022/11/29 03:23:14;;;;;;;27.30;17.65;;;;;;;;;;4992863;28;20022;-74
2022/11/29 03:25:40;;;;;;;29.20;18.42;;;;;;;;;;4993112;28;20061;-73
2022/11/29 03:28:13;;;;;;;25.83;16.83;;;;;;;;;;4992979;28;20031;-73
2022/11/29 03:30:43;;;;;;;31.27;20.85;;;;;;;;;;4993091;28;20026;-74
2022/11/29 03:33:16;;;;;;;22.13;15.95;;;;;;;;;;4992865;28;20121;-74
2022/11/29 03:35:45;;;;;;;35.85;21.65;;;;;;;;;;4992791;28;20161;-74
2022/11/29 03:38:23;;;;;;;38.40;24.67;;;;;;;;;;4992771;28;20026;-74
2022/11/29 03:40:55;;;;;;;42.95;26.20;;;;;;;;;;4992977;28;20022;-75
2022/11/29 03:43:33;;;;;;;58.17;36.55;;;;;;;;;;4992660;28;20493;-74
2022/11/29 03:46:03;;;;;;;53.78;33.40;;;;;;;;;;4992823;28;20061;-72
2022/11/29 03:48:31;;;;;;;45.50;29.73;;;;;;;;;;4993357;28;20058;-74
2022/11/29 03:51:07;;;;;;;43.28;29.25;;;;;;;;;;4978644;28;20401;-75
2022/11/29 03:53:39;;;;;;;45.58;29.83;;;;;;;;;;4996350;28;20019;-74
2022/11/29 03:56:22;;;;;;;40.50;28.05;;;;;;;;;;4996335;28;20026;-74
2022/11/29 03:59:03;;;;;;;38.03;24.75;;;;;;;;;;4996253;28;20037;-73
2022/11/29 04:01:50;;;;;;;46.23;28.90;;;;;;;;;;4996446;28;20037;-74
2022/11/29 04:04:39;;;;;;;44.72;28.40;;;;;;;;;;4996108;28;20029;-75
2022/11/29 04:07:17;;;;;;;43.17;27.23;;;;;;;;;;4898457;29;20387;-74
2022/11/29 04:09:56;;;;;;;41.03;27.88;;;;;;;;;;4898443;29;20036;-74
2022/11/29 04:12:37;;;;;;;37.80;24.40;;;;;;;;;;4898311;29;20048;-73
2022/11/29 04:15:22;;;;;;;40.60;24.58;;;;;;;;;;4898020;29;20447;-75
2022/11/29 04:17:51;;;;;;;35.38;23.88;;;;;;;;;;4897956;29;20048;-74
2022/11/29 04:20:33;;;;;;;36.83;24.67;;;;;;;;;;4882341;29;20025;-73
2022/11/29 04:23:02;;;;;;;43.75;28.33;;;;;;;;;;4897934;29;20089;-74
2022/11/29 04:25:40;;;;;;;44.88;27.13;;;;;;;;;;4882398;29;20041;-75
2022/11/29 04:28:06;;;;;;;37.38;26.70;;;;;;;;;;4882583;29;20200;-72
2022/11/29 04:30:53;;;;;;;41.90;28.00;;;;;;;;;;4897910;29;20530;-74
2022/11/29 04:33:25;;;;;;;45.80;30.02;;;;;;;;;;4860468;29;20077;-74
2022/11/29 04:35:56;;;;;;;44.65;30.13;;;;;;;;;;4860752;29;20045;-74
2022/11/29 04:38:22;;;;;;;;;;;;;;;;;;4860923;29;20098;-75
2022/11/29 04:41:07;;;;;;;46.95;28.95;;;;;;;;;;4860592;29;19912;-74
2022/11/29 04:43:47;;;;;;;39.83;27.67;;;;;;;;;;4884637;28;20046;-74
2022/11/29 04:46:13;;;;;;;43.97;27.63;;;;;;;;;;4954622;29;20402;-74
2022/11/29 04:48:39;;;;;;;45.38;30.00;;;;;;;;;;4954618;29;20102;-75
2022/11/29 04:51:08;;;;;;;38.13;25.88;;;;;;;;;;4954851;29;20044;-74
2022/11/29 04:53:40;;;;;;;42.25;28.05;;;;;;;;;;4954357;29;20477;-74
2022/11/29 04:56:41;;;;;;;40.95;26.60;;;;;;;;;;4954336;29;20090;-74
2022/11/29 04:59:25;;;;;;;41.33;26.65;;;;;;;;;;4897185;29;20120;-74
2022/11/29 05:02:11;;;;;;;43.42;27.17;;;;;;;;;;4896363;29;20047;-74
2022/11/29 05:04:40;;;;;;;46.80;31.00;;;;;;;;;;4896964;29;20045;-74
2022/11/29 05:07:12;;;;;;;51.25;32.20;;;;;;;;;;4897171;29;20045;-74
2022/11/29 05:09:52;;;;;;;61.72;37.63;;;;;;;;;;4904280;29;20035;-74
2022/11/29 05:12:21;;;;;;;60.80;38.33;;;;;;;;;;4935025;29;20032;-74
2022/11/29 05:14:49;;;;;;;67.68;42.30;;;;;;;;;;4934796;29;20040;-74
2022/11/29 05:17:29;;;;;;;66.60;38.83;;;;;;;;;;4934638;29;20206;-72
2022/11/29 05:20:03;;;;;;;68.43;41.92;;;;;;;;;;4934894;28;20032;-74
2022/11/29 05:22:40;;;;;;;63.15;39.20;;;;;;;;;;4934828;29;20413;-74
2022/11/29 05:25:17;;;;;;;54.58;35.35;;;;;;;;;;4934820;29;20035;-74
2022/11/29 05:27:46;;;;;;;57.15;36.13;;;;;;;;;;4934649;29;20126;-73
2022/11/29 05:30:22;;;;;;;54.78;34.13;;;;;;;;;;4934431;29;20036;-74
2022/11/29 05:32:51;;;;;;;56.83;35.90;;;;;;;;;;4957805;28;20396;-74
2022/11/29 05:35:28;;;;;;;65.13;40.30;;;;;;;;;;4994653;28;20026;-72
2022/11/29 05:37:54;;;;;;;69.65;45.38;;;;;;;;;;4994410;28;20027;-74
2022/11/29 05:40:26;;;;;;;63.28;40.25;;;;;;;;;;4994218;28;20030;-74
2022/11/29 05:43:28;;;;;;;64.05;42.45;;;;;;;;;;4994333;28;20101;-74
2022/11/29 05:46:12;;;;;;;80.10;52.17;;;;;;;;;;4896139;29;20033;-73
2022/11/29 05:48:57;;;;;;;73.28;48.42;;;;;;;;;;4896443;29;20480;-73
2022/11/29 05:51:23;;;;;;;75.03;50.53;;;;;;;;;;4896710;29;20036;-74
2022/11/29 05:53:58;;;;;;;78.30;53.53;;;;;;;;;;4896167;29;20033;-74
2022/11/29 05:56:27;;;;;;;75.90;51.33;;;;;;;;;;4896462;29;20156;-75
2022/11/29 05:58:56;;;;;;;80.18;53.50;;;;;;;;;;4896283;29;20131;-74
2022/11/29 06:01:27;;;;;;;82.20;52.47;;;;;;;;;;4896039;29;20166;-74
2022/11/29 06:03:58;;;;;;;73.22;45.30;;;;;;;;;;4896194;29;20527;-74
2022/11/29 06:06:38;;;;;;;75.75;44.95;;;;;;;;;;4896311;29;20176;-73
2022/11/29 06:09:05;;;;;;;68.72;44.70;;;;;;;;;;4896047;29;20033;-74
2022/11/29 06:11:34;;;;;;;78.15;49.72;;;;;;;;;;4896390;29;20033;-74
2022/11/29 06:14:08;;;;;;;86.22;51.75;;;;;;;;;;4895517;29;20123;-73
2022/11/29 06:16:55;;;;;;;88.15;53.88;;;;;;;;;;4896033;29;20488;-74
2022/11/29 06:19:41;;;;;;;88.90;57.83;;;;;;;;;;4924766;28;20058;-72
2022/11/29 06:22:10;;;;;;;88.22;55.15;;;;;;;;;;4993605;28;20036;-74
2022/11/29 06:24:55;;;;;;;78.15;48.92;;;;;;;;;;4993436;28;20076;-74
2022/11/29 06:27:29;;;;;;;79.22;50.15;;;;;;;;;;4993695;28;20058;-75
2022/11/29 06:29:55;;;;;;;84.07;53.70;;;;;;;;;;4993433;28;20105;-74
2022/11/29 06:32:31;;;;;;;89.30;57.45;;;;;;;;;;4993253;28;20109;-74
2022/11/29 06:35:01;;;;;;;98.28;59.75;;;;;;;;;;4993444;28;20025;-75
2022/11/29 06:37:49;;;;;;;85.60;56.80;;;;;;;;;;4993386;28;20104;-73
2022/11/29 06:40:16;;;;;;;94.20;56.88;;;;;;;;;;4993634;28;20114;-73
2022/11/29 06:42:43;;;;;;;92.43;59.03;;;;;;;;;;4993479;28;20036;-74
2022/11/29 06:45:13;;;;;;;95.95;60.88;;;;;;;;;;4993281;28;20018;-74
2022/11/29 06:47:48;;;;;;;95.30;59.50;;;;;;;;;;4993322;28;20109;-74
2022/11/29 06:50:32;;;;;;;92.82;57.70;;;;;;;;;;4993199;28;20023;-74
2022/11/29 06:52:58;;;;;;;95.72;60.47;;;;;;;;;;4993455;28;20038;-73
2022/11/29 06:55:32;;;;;;;100.93;59.63;;;;;;;;;;4992989;28;20034;-75
2022/11/29 06:58:17;;;;;;;91.18;57.22;;;;;;;;;;4993226;28;20026;-73
2022/11/29 07:01:06;;;;;;;106.20;65.82;;;;;;;;;;4992978;28;20029;-74
2022/11/29 07:03:40;;;;;;;108.70;67.53;;;;;;;;;;4895418;29;20043;-75
2022/11/29 07:06:20;;;;;;;85.13;55.63;;;;;;;;;;4895424;29;20044;-75
2022/11/29 07:08:48;;;;;;;75.57;45.88;;;;;;;;;;4895282;29;20033;-74
2022/11/29 07:11:15;;;;;;;76.43;47.25;;;;;;;;;;4895368;29;20480;-76
2022/11/29 07:13:41;;;;;;;87.88;55.92;;;;;;;;;;4895198;29;20539;-72
2022/11/29 07:16:21;;;;;;;109.10;76.85;;;;;;;;;;4894958;29;20473;-75
2022/11/29 07:18:47;;;;;;;117.28;72.57;;;;;;;;;;4895121;29;20049;-75
2022/11/29 07:21:16;;;;;;;97.03;67.35;;;;;;;;;;4895276;29;20037;-74
2022/11/29 07:23:50;;;;;;;97.35;65.53;;;;;;;;;;4895033;29;20117;-75
2022/11/29 07:26:16;;;;;;;93.43;62.33;;;;;;;;;;4898874;29;20037;-74
2022/11/29 07:28:45;;;;;;;98.40;64.30;;;;;;;;;;4899042;29;20630;-73
2022/11/29 07:31:18;;;;;;;73.93;44.42;;;;;;;;;;4898905;29;20028;-74
2022/11/29 07:33:50;;;;;;;80.82;46.10;;;;;;;;;;4898684;29;20145;-73
2022/11/29 07:36:19;;;;;;;168.25;95.20;;;;;;;;;;4898688;29;20040;-73
2022/11/29 07:38:45;;;;;;;102.78;58.78;;;;;;;;;;4883107;29;20037;-75
2022/11/29 07:41:11;;;;;;;80.25;41.63;;;;;;;;;;4974953;28;20109;-73
2022/11/29 07:43:44;;;;;;;70.60;41.50;;;;;;;;;;4996579;28;20029;-74
2022/11/29 07:46:10;;;;;;;47.20;31.08;;;;;;;;;;4996448;28;20034;-74
2022/11/29 07:48:37;;;;;;;82.15;48.92;;;;;;;;;;4996367;28;20501;-75
2022/11/29 07:51:03;;;;;;;74.30;48.92;;;;;;;;;;4996576;28;20101;-75
2022/11/29 07:53:29;;;;;;;75.35;49.55;;;;;;;;;;4996438;28;20018;-75
2022/11/29 07:55:56;;;;;;;78.85;50.28;;;;;;;;;;4996311;28;20412;-75
2022/11/29 07:58:22;;;;;;;63.65;41.58;;;;;;;;;;4996263;28;20022;-75
2022/11/29 08:00:48;;;;;;;61.55;40.97;;;;;;;;;;4996072;28;20451;-73
2022/11/29 08:03:14;;;;;;;58.33;36.53;;;;;;;;;;4996314;28;20022;-75
2022/11/29 08:05:44;;;;;;;58.22;36.58;;;;;;;;;;4995774;28;20038;-74
2022/11/29 08:08:10;;;;;;;50.78;32.30;;;;;;;;;;4996103;28;20054;-74
2022/11/29 08:10:36;;;;;;;52.22;34.40;;;;;;;;;;4996005;28;20053;-75
2022/11/29 08:13:02;;;;;;;53.42;33.00;;;;;;;;;;4995986;28;20014;-75
2022/11/29 08:15:28;;;;;;;48.15;32.38;;;;;;;;;;4996270;28;20361;-76
2022/11/29 08:17:54;;;;;;;49.50;32.72;;;;;;;;;;4995828;28;20039;-75
2022/11/29 08:20:20;;;;;;;55.22;37.00;;;;;;;;;;4995704;28;20202;-74
2022/11/29 08:22:57;;;;;;;68.90;39.22;;;;;;;;;;4995743;28;20022;-75
2022/11/29 08:25:23;;;;;;;78.82;46.80;;;;;;;;;;4965809;28;20153;-75
2022/11/29 08:27:50;;;;;;;73.07;42.10;;;;;;;;;;4995819;28;20065;-73
2022/11/29 08:30:22;;;;;;;77.47;42.85;;;;;;;;;;4995528;28;20030;-75
2022/11/29 08:32:49;;;;;;;60.13;38.42;;;;;;;;;;4995708;28;20030;-75
2022/11/29 08:35:16;;;;;;;57.83;38.45;;;;;;;;;;4995177;28;20037;-73
2022/11/29 08:37:42;;;;;;;66.38;37.92;;;;;;;;;;4995524;28;20026;-74
2022/11/29 08:40:08;;;;;;;59.30;37.90;;;;;;;;;;4995247;28;20080;-73
2022/11/29 08:42:34;;;;;;;74.45;41.78;;;;;;;;;;4995316;28;20033;-73
2022/11/29 08:45:00;;;;;;;56.83;35.97;;;;;;;;;;4995317;28;20358;-74
2022/11/29 08:47:35;;;;;;;59.00;38.13;;;;;;;;;;4995173;28;20026;-75
2022/11/29 08:50:22;;;;;;;57.03;35.08;;;;;;;;;;4994808;28;20023;-75
2022/11/29 08:55:35;;;;;;;41.58;28.90;;;;;;;;;;4995239;28;20085;-75
2022/11/29 08:58:06;;;;;;;40.30;25.55;;;;;;;;;;4995224;28;20465;-75
2022/11/29 09:00:32;;;;;;;34.03;21.17;;;;;;;;;;4994811;28;20026;-73
2022/11/29 09:03:58;;;;;;;42.17;26.38;;;;;;;;;;4995058;28;20018;-75
2022/11/29 09:05:45;;;;;;;55.83;33.70;;;;;;;;;;4994843;28;20049;-75
2022/11/29 09:08:11;;;;;;;55.63;27.92;;;;;;;;;;4995072;28;20050;-74
2022/11/29 09:10:40;;;;;;;56.00;33.17;;;;;;;;;;4994951;28;20541;-75
2022/11/29 09:13:07;;;;;;;42.63;26.48;;;;;;;;;;4994699;28;20115;-74
2022/11/29 09:15:33;;;;;;;36.50;25.55;;;;;;;;;;4994954;28;20054;-74
2022/11/29 09:17:59;;;;;;;48.90;32.28;;;;;;;;;;4994610;28;20074;-73
2022/11/29 09:20:25;;;;;;;29.67;22.77;;;;;;;;;;4994711;28;20026;-75
2022/11/29 09:22:51;;;;;;;25.85;18.67;;;;;;;;;;4994465;28;20093;-74
2022/11/29 09:25:17;;;;;;;32.13;22.50;;;;;;;;;;4994778;28;20384;-75
2022/11/29 09:27:43;;;;;;;49.40;30.05;;;;;;;;;;4994572;28;20033;-75
2022/11/29 09:30:10;;;;;;;41.35;26.25;;;;;;;;;;4994809;28;20157;-74
2022/11/29 09:32:36;;;;;;;43.78;24.98;;;;;;;;;;4994375;28;20508;-74
2022/11/29 09:35:02;;;;;;;32.13;21.85;;;;;;;;;;4994353;28;20117;-75
2022/11/29 09:37:28;;;;;;;29.98;22.08;;;;;;;;;;4994349;28;20030;-74
2022/11/29 09:39:54;;;;;;;29.95;21.23;;;;;;;;;;4994281;28;20026;-75
2022/11/29 09:42:26;;;;;;;33.92;23.50;;;;;;;;;;4994376;28;20396;-74
2022/11/29 09:45:02;;;;;;;32.10;24.52;;;;;;;;;;4994157;28;20026;-76
2022/11/29 09:47:43;;;;;;;37.33;23.90;;;;;;;;;;4993415;28;20015;-75
2022/11/29 09:50:35;;;;;;;34.97;22.55;;;;;;;;;;4993988;28;20120;-75
2022/11/29 09:53:01;;;;;;;;;;;;;;;;;;4994450;28;20035;-75
2022/11/29 09:55:36;;;;;;;37.35;21.58;;;;;;;;;;4993718;28;19920;-75
2022/11/29 09:58:03;;;;;;;30.30;20.10;;;;;;;;;;4994190;28;20026;-75
2022/11/29 10:00:30;;;;;;;35.63;22.75;;;;;;;;;;4993717;28;20054;-74
2022/11/29 10:02:59;;;;;;;31.75;19.80;;;;;;;;;;4993862;28;20025;-75
2022/11/29 10:05:27;;;;;;;27.77;19.83;;;;;;;;;;4993929;28;20041;-75
2022/11/29 10:08:00;;;;;;;36.85;21.63;;;;;;;;;;4994094;28;20464;-75
2022/11/29 10:10:36;;;;;;;22.75;15.73;;;;;;;;;;4994085;28;20081;-75
2022/11/29 10:13:11;;;;;;;26.80;18.48;;;;;;;;;;4993648;28;20021;-75
2022/11/29 10:15:43;;;;;;;29.60;18.63;;;;;;;;;;4993599;28;20093;-75
2022/11/29 10:18:11;;;;;;;22.30;15.50;;;;;;;;;;4993632;28;20042;-75
2022/11/29 10:20:39;;;;;;;26.73;15.77;;;;;;;;;;4993496;28;20030;-72
2022/11/29 10:23:15;;;;;;;32.58;17.95;;;;;;;;;;4993475;28;20040;-75
2022/11/29 10:25:49;;;;;;;24.33;15.43;;;;;;;;;;4993575;28;20388;-74
2022/11/29 10:28:17;;;;;;;22.13;15.73;;;;;;;;;;4993367;28;20062;-75
2022/11/29 10:30:43;;;;;;;29.35;19.35;;;;;;;;;;4993453;28;20109;-75
2022/11/29 10:33:15;;;;;;;26.15;16.80;;;;;;;;;;4993116;28;20543;-74
2022/11/29 10:35:42;;;;;;;27.40;16.73;;;;;;;;;;4993318;28;20365;-73
2022/11/29 10:38:10;;;;;;;25.33;14.90;;;;;;;;;;4993334;28;20030;-75
2022/11/29 10:40:37;;;;;;;29.10;16.65;;;;;;;;;;4993504;28;20031;-74
2022/11/29 10:43:03;;;;;;;24.27;14.98;;;;;;;;;;4993270;28;20034;-73
2022/11/29 10:45:32;;;;;;;31.70;16.52;;;;;;;;;;4993491;28;20461;-75
2022/11/29 10:48:02;;;;;;;26.70;16.48;;;;;;;;;;4993008;28;20018;-74
2022/11/29 10:50:30;;;;;;;32.63;20.17;;;;;;;;;;4975610;28;20023;-75
2022/11/29 10:53:04;;;;;;;78.72;43.10;;;;;;;;;;4993200;28;20019;-74
2022/11/29 10:55:34;;;;;;;152.20;85.80;;;;;;;;;;4992723;28;20497;-75
2022/11/29 10:58:11;;;;;;;49.83;31.20;;;;;;;;;;4992835;28;20038;-75
2022/11/29 11:00:54;;;;;;;26.35;18.77;;;;;;;;;;4978292;28;20030;-75
2022/11/29 11:03:28;;;;;;;21.63;14.10;;;;;;;;;;4997085;28;20034;-75
2022/11/29 11:05:58;;;;;;;24.52;15.45;;;;;;;;;;4979542;28;20022;-76
2022/11/29 11:08:25;;;;;;;33.40;23.05;;;;;;;;;;4979432;28;20516;-75
2022/11/29 11:10:55;;;;;;;25.65;17.02;;;;;;;;;;4996826;28;20469;-75
2022/11/29 11:13:25;;;;;;;23.95;16.25;;;;;;;;;;4997395;28;20481;-74
2022/11/29 11:16:17;;;;;;;17.30;11.73;;;;;;;;;;4996910;28;20121;-75
2022/11/29 11:18:44;;;;;;;20.17;13.88;;;;;;;;;;4992444;28;20133;-75
2022/11/29 11:21:11;;;;;;;19.63;14.57;;;;;;;;;;4996743;28;20085;-75
2022/11/29 11:24:04;;;;;;;49.33;35.08;;;;;;;;;;4996746;28;20057;-75
2022/11/29 11:26:44;;;;;;;52.08;36.13;;;;;;;;;;4993167;28;20053;-74
2022/11/29 11:29:17;;;;;;;38.88;25.35;;;;;;;;;;4996769;28;20562;-76
2022/11/29 11:31:50;;;;;;;31.50;20.38;;;;;;;;;;4996801;28;20019;-76
2022/11/29 11:34:34;;;;;;;33.05;21.05;;;;;;;;;;4996433;28;20499;-75
2022/11/29 11:37:18;;;;;;;27.98;17.38;;;;;;;;;;4996560;28;20365;-75
2022/11/29 11:39:45;;;;;;;42.25;29.60;;;;;;;;;;4996551;28;20358;-76
2022/11/29 11:44:57;;;;;;;38.28;24.77;;;;;;;;;;4996712;28;20440;-75
2022/11/29 11:47:26;;;;;;;36.75;24.83;;;;;;;;;;4996441;28;20027;-76
2022/11/29 11:50:01;;;;;;;22.73;15.75;;;;;;;;;;4996359;28;20018;-75
2022/11/29 11:52:30;;;;;;;25.77;17.95;;;;;;;;;;4996087;28;20022;-76
2022/11/29 11:54:58;;;;;;;23.30;16.48;;;;;;;;;;4996089;28;20026;-75
2022/11/29 11:57:25;;;;;;;19.15;12.90;;;;;;;;;;4996319;28;20547;-75
2022/11/29 11:59:53;;;;;;;25.73;16.25;;;;;;;;;;4996325;28;20034;-76
2022/11/29 12:02:25;;;;;;;38.15;25.05;;;;;;;;;;4996042;28;20026;-75
2022/11/29 12:04:52;;;;;;;44.17;27.95;;;;;;;;;;4996174;28;20026;-76
2022/11/29 12:07:24;;;;;;;32.65;18.08;;;;;;;;;;4996033;28;20023;-75
2022/11/29 12:09:59;;;;;;;25.13;14.25;;;;;;;;;;4995584;28;20030;-75
2022/11/29 12:12:26;;;;;;;28.38;19.40;;;;;;;;;;4995811;28;20140;-76
2022/11/29 12:14:55;;;;;;;16.55;11.38;;;;;;;;;;4995674;28;20026;-75
2022/11/29 12:17:24;;;;;;;20.98;15.00;;;;;;;;;;4995579;28;20054;-76
2022/11/29 12:20:09;;;;;;;31.30;20.50;;;;;;;;;;4996031;28;20023;-76
2022/11/29 12:22:39;;;;;;;24.13;13.82;;;;;;;;;;4995731;28;20030;-76
2022/11/29 12:25:10;;;;;;;35.92;23.67;;;;;;;;;;4995432;28;20118;-76
2022/11/29 12:27:36;;;;;;;29.98;17.80;;;;;;;;;;4995485;28;20023;-76
2022/11/29 12:30:02;;;;;;;52.58;31.67;;;;;;;;;;4995586;28;20543;-76
2022/11/29 12:32:31;;;;;;;40.60;24.75;;;;;;;;;;4996036;28;20019;-75
2022/11/29 12:35:14;;;;;;;17.60;11.57;;;;;;;;;;4995517;28;20060;-75
2022/11/29 12:37:47;;;;;;;19.45;11.70;;;;;;;;;;4995536;28;20096;-76
2022/11/29 12:40:32;;;;;;;21.50;15.05;;;;;;;;;;4995241;28;20097;-76
2022/11/29 12:43:08;;;;;;;37.58;23.02;;;;;;;;;;4995307;28;20026;-74
2022/11/29 12:45:44;;;;;;;24.90;14.80;;;;;;;;;;4995589;28;20373;-73
2022/11/29 12:48:13;;;;;;;31.27;18.95;;;;;;;;;;4995080;28;20023;-74
2022/11/29 12:50:50;;;;;;;25.40;15.82;;;;;;;;;;4995133;28;20481;-75
2022/11/29 12:53:25;;;;;;;18.65;13.07;;;;;;;;;;4995263;28;20034;-75
2022/11/29 12:56:12;;;;;;;15.43;12.40;;;;;;;;;;4994900;28;20037;-74
2022/11/29 12:58:56;;;;;;;17.45;13.05;;;;;;;;;;4994993;28;20022;-74
2022/11/29 13:01:41;;;;;;;24.88;15.30;;;;;;;;;;4994949;28;20030;-74
2022/11/29 13:04:07;;;;;;;21.65;16.23;;;;;;;;;;4994796;28;20030;-75
2022/11/29 13:06:56;;;;;;;15.02;10.88;;;;;;;;;;4994860;28;20026;-76
2022/11/29 13:09:34;;;;;;;17.40;12.50;;;;;;;;;;4896645;29;20550;-74
2022/11/29 13:12:08;;;;;;;22.00;14.32;;;;;;;;;;4897203;29;20041;-74
2022/11/29 13:14:41;;;;;;;19.77;15.32;;;;;;;;;;4896854;29;20041;-74
2022/11/29 13:17:24;;;;;;;23.38;14.50;;;;;;;;;;4896584;29;20052;-74
2022/11/29 13:19:53;;;;;;;23.73;15.77;;;;;;;;;;4896880;29;20423;-74
2022/11/29 13:22:37;;;;;;;35.95;20.45;;;;;;;;;;4880403;29;20025;-74
2022/11/29 13:25:21;;;;;;;30.17;18.42;;;;;;;;;;4896783;29;20067;-74
2022/11/29 13:27:57;;;;;;;25.77;16.02;;;;;;;;;;4896929;29;20069;-74
2022/11/29 13:30:23;;;;;;;24.77;16.88;;;;;;;;;;4896582;29;20037;-75
2022/11/29 13:32:53;;;;;;;23.27;15.35;;;;;;;;;;4896799;29;20079;-75
2022/11/29 13:35:22;;;;;;;20.60;13.82;;;;;;;;;;4896656;29;20037;-74
2022/11/29 13:37:51;;;;;;;15.45;10.75;;;;;;;;;;4896857;29;20040;-75
2022/11/29 13:40:20;;;;;;;19.88;13.70;;;;;;;;;;4896393;29;20068;-74
2022/11/29 13:43:06;;;;;;;22.77;14.05;;;;;;;;;;4896517;29;20388;-72
2022/11/29 13:45:46;;;;;;;36.53;22.17;;;;;;;;;;4874266;29;20042;-75
2022/11/29 13:48:31;;;;;;;23.90;16.75;;;;;;;;;;4937299;29;20170;-75
2022/11/29 13:50:58;;;;;;;23.45;16.45;;;;;;;;;;4937763;29;20062;-74
2022/11/29 13:53:25;;;;;;;18.67;13.65;;;;;;;;;;4953284;29;20030;-74
2022/11/29 13:56:00;;;;;;;20.92;14.98;;;;;;;;;;4953161;29;20031;-74
2022/11/29 13:58:26;;;;;;;25.67;17.13;;;;;;;;;;4953451;29;20496;-75
2022/11/29 14:00:54;;;;;;;24.20;16.05;;;;;;;;;;4953106;29;20031;-76
2022/11/29 14:03:26;;;;;;;24.45;16.02;;;;;;;;;;4953168;29;20035;-75
2022/11/29 14:05:52;;;;;;;45.75;28.02;;;;;;;;;;4952998;29;20062;-74
2022/11/29 14:08:35;;;;;;;54.72;31.70;;;;;;;;;;4953024;29;20031;-75
2022/11/29 14:11:21;;;;;;;52.97;30.48;;;;;;;;;;4952993;29;20058;-77
2022/11/29 14:13:47;;;;;;;56.83;31.98;;;;;;;;;;4952944;28;20027;-75
2022/11/29 14:16:18;;;;;;;35.35;25.88;;;;;;;;;;4952712;29;20113;-75
2022/11/29 14:18:44;;;;;;;;;;;;;;;;;;4952864;28;20066;-74
2022/11/29 14:21:11;;;;;;;24.30;16.80;;;;;;;;;;4952799;29;19907;-73
2022/11/29 14:23:39;;;;;;;24.52;16.13;;;;;;;;;;4972566;28;20173;-75
2022/11/29 14:26:05;;;;;;;35.78;24.52;;;;;;;;;;4974413;28;20057;-76
2022/11/29 14:28:32;;;;;;;34.38;22.02;;;;;;;;;;4973984;28;20098;-75
2022/11/29 14:31:02;;;;;;;24.20;16.20;;;;;;;;;;4974145;28;20142;-74
2022/11/29 14:33:34;;;;;;;38.88;26.45;;;;;;;;;;4973445;28;20027;-73
2022/11/29 14:36:13;;;;;;;18.63;13.80;;;;;;;;;;4973811;28;20048;-74
2022/11/29 14:38:39;;;;;;;26.23;17.17;;;;;;;;;;4973981;28;20081;-75
2022/11/29 14:41:05;;;;;;;29.52;18.25;;;;;;;;;;4973899;28;20031;-75
2022/11/29 14:43:31;;;;;;;31.35;22.23;;;;;;;;;;4972481;28;20034;-75
2022/11/29 14:46:15;;;;;;;41.67;31.15;;;;;;;;;;4974353;28;20027;-75
2022/11/29 14:48:58;;;;;;;42.95;32.80;;;;;;;;;;4973554;28;20074;-74